NCAR-RAP Real-Time Weather Data

Output produced by METARs form (12 August 2020  18:28 UTC)
found at http://weather.rap.ucar.edu/surface/
 
KISW 121754Z AUTO 21006KT 10SM CLR 27/14 A3013 RMK AO2 SLP197 T02720139 10283 20139 50010
KISW 121654Z AUTO VRB06KT 10SM CLR 28/13 A3013 RMK AO2 SLP198 T02780133
KISW 121554Z AUTO 17008KT 10SM CLR 27/13 A3012 RMK AO2 SLP194 T02670133
KISW 121454Z AUTO 12005KT 10SM CLR 24/14 A3009 RMK AO2 SLP187 T02440139 58012
KISW 121354Z AUTO 15003KT 10SM CLR 22/15 A3012 RMK AO2 SLP195 T02220150 TSNO
KISW 121254Z AUTO 00000KT 10SM CLR 19/16 A3012 RMK AO2 SLP196 T01890156 TSNO
KISW 121154Z AUTO 00000KT 10SM CLR 14/13 A3013 RMK AO2 SLP199 7//// T01390133 10161 20128 53013 TSNO
KISW 121123Z AUTO 00000KT 4SM BR CLR 13/12 A3012 RMK AO2 T01330122 TSNO
KISW 121121Z AUTO 00000KT 1 1/4SM BR CLR 13/12 A3012 RMK AO2 T01330122 TSNO
KISW 121106Z AUTO 00000KT 3/4SM BR CLR 13/12 A3012 RMK AO2 T01330122 TSNO
KISW 121101Z AUTO 00000KT 1 3/4SM BR CLR 14/13 A3012 RMK AO2 T01390128 TSNO
KISW 121054Z AUTO 00000KT 8SM CLR 13/12 A3011 RMK AO2 SLP194 T01330122 TSNO
KISW 121044Z AUTO 00000KT 3SM BR CLR 13/12 A3011 RMK AO2 T01330122 TSNO
KISW 121018Z AUTO 00000KT 1 3/4SM BR CLR 14/13 A3010 RMK AO2 T01390128 TSNO
KISW 120954Z AUTO 00000KT 10SM CLR 14/13 A3010 RMK AO2 SLP188 T01390128 TSNO
KISW 120854Z AUTO 00000KT 10SM CLR 15/14 A3009 RMK AO2 SLP185 T01500139 53010
KISW 120754Z AUTO 00000KT 10SM CLR 16/14 A3007 RMK AO2 SLP180 T01560139
KISW 120654Z AUTO 00000KT 10SM CLR 14/12 A3007 RMK AO2 SLP179 T01390122
KISW 120554Z AUTO 00000KT 10SM CLR 16/13 A3006 RMK AO2 SLP175 T01560133 10267 20150 402830111 53008
KISW 120454Z AUTO 00000KT 10SM CLR 16/13 A3004 RMK AO2 SLP171 T01560133
KISW 120354Z AUTO 00000KT 10SM CLR 17/14 A3004 RMK AO2 SLP168 T01670139
KISW 120254Z AUTO 00000KT 10SM CLR 17/14 A3003 RMK AO2 SLP167 T01720144 53007
KISW 120154Z AUTO 21003KT 10SM CLR 18/14 A3003 RMK AO2 SLP166 T01830144
KISW 120054Z AUTO 00000KT 10SM CLR 22/14 A3001 RMK AO2 SLP160 T02220144
KISW 112354Z AUTO 22006KT 10SM CLR 27/12 A3001 RMK AO2 SLP160 T02670122 10283 20261 55001
KISW 112254Z AUTO VRB05KT 10SM CLR 28/12 A3001 RMK AO2 SLP159 T02780122
KISW 112154Z AUTO 10SM CLR 28/12 A3001 RMK AO2 SLP158 T02830122